Terminal Aerodrome Forecast
Issued by NWS

Home | Current Version | Previous Version | Text Only | Print | Product List | Glossary On
Versions: 1 2 3 4 5 6 7 8 9 10 11 12 13 14 15 16 17 18 19
000
FTUS44 KLZK 161135
TAFADF
TAF
KADF 161135Z 1612/1712 04006KT P6SM -RA BKN005 OVC025 WS020/18040KT
      TEMPO 1612/1615 2SM -RA BR OVC005
     FM161500 10010G18KT 5SM -RA BR OVC008 WS020/19040KT
     FM162200 17008G16KT 6SM -RA BR VCTS OVC015CB PROB30 1622/1704
      2SM -TSRA BR OVC007CB
     FM170400 24008KT P6SM VCSH OVC015=

USA.gov is the U.S. government's official web portal to all federal, state and local government web resources and services.